createdAt,value
2016-08-30T00:00:50.498Z,16.93
2016-08-30T00:01:51.769Z,16.91
2016-08-30T00:02:53.776Z,16.97
2016-08-30T00:03:49.459Z,16.97
2016-08-30T00:04:49.434Z,17.06
2016-08-30T00:05:49.410Z,17.02
2016-08-30T00:06:49.390Z,16.94
2016-08-30T00:07:49.367Z,16.97
2016-08-30T00:08:49.346Z,16.97
2016-08-30T00:09:49.376Z,17.02
2016-08-30T00:10:49.302Z,16.93
2016-08-30T00:11:49.283Z,16.99
2016-08-30T00:12:49.262Z,17.02
2016-08-30T00:13:49.262Z,16.99
2016-08-30T00:14:49.219Z,17.04
2016-08-30T00:15:49.195Z,16.97
2016-08-30T00:16:49.175Z,16.99
2016-08-30T00:17:49.153Z,17.04
2016-08-30T00:18:49.137Z,16.97
2016-08-30T00:19:49.110Z,16.9
2016-08-30T00:20:49.084Z,16.99
2016-08-30T00:21:49.065Z,16.96
2016-08-30T00:22:49.052Z,16.84
2016-08-30T00:23:49.026Z,16.91
2016-08-30T00:24:49.002Z,16.9
2016-08-30T00:25:48.976Z,16.87
2016-08-30T00:26:48.958Z,16.9
2016-08-30T00:27:48.934Z,16.84
2016-08-30T00:28:48.914Z,16.79
2016-08-30T00:29:48.896Z,16.81
2016-08-30T00:30:48.867Z,16.74
2016-08-30T00:31:48.848Z,16.79
2016-08-30T00:32:48.827Z,16.78
2016-08-30T00:33:48.805Z,16.71
2016-08-30T00:34:48.781Z,16.74
2016-08-30T00:35:48.758Z,16.74
2016-08-30T00:36:48.738Z,16.69
2016-08-30T00:37:48.721Z,16.66
2016-08-30T00:38:48.696Z,16.64
2016-08-30T00:39:48.674Z,16.61
2016-08-30T00:40:48.649Z,16.68
2016-08-30T00:41:48.629Z,16.66
2016-08-30T00:42:48.605Z,16.66
2016-08-30T00:43:48.585Z,16.61
2016-08-30T00:44:48.564Z,16.57
2016-08-30T00:45:48.541Z,16.6
2016-08-30T00:46:48.519Z,16.61
2016-08-30T00:47:48.497Z,16.46
2016-08-30T00:48:48.475Z,16.51
2016-08-30T00:49:48.475Z,16.47
2016-08-30T00:50:48.433Z,16.41
2016-08-30T00:51:48.415Z,16.46
2016-08-30T00:52:48.388Z,16.47
2016-08-30T00:53:48.361Z,16.42
2016-08-30T00:54:48.342Z,16.36
2016-08-30T00:55:48.320Z,16.35
2016-08-30T00:56:48.298Z,16.39
2016-08-30T00:57:48.275Z,16.39
2016-08-30T00:58:48.255Z,16.26
2016-08-30T00:59:48.232Z,16.35
2016-08-30T01:00:48.208Z,16.31
2016-08-30T01:01:48.188Z,16.35
2016-08-30T01:02:48.165Z,16.39
2016-08-30T01:03:48.139Z,16.17
2016-08-30T01:04:48.119Z,16.24
2016-08-30T01:05:48.098Z,16.23
2016-08-30T01:06:48.077Z,16.28
2016-08-30T01:07:48.053Z,16.15
2016-08-30T01:08:48.028Z,16.21
2016-08-30T01:09:48.059Z,16.26
2016-08-30T01:10:47.992Z,16.23
2016-08-30T01:11:47.964Z,16.2
2016-08-30T01:12:47.942Z,16.2
2016-08-30T01:13:47.918Z,16.17
2016-08-30T01:14:47.897Z,16.2
2016-08-30T01:15:47.874Z,16.15
2016-08-30T01:16:47.853Z,16.16
2016-08-30T01:17:47.832Z,16.1
2016-08-30T01:18:47.806Z,16.13
2016-08-30T01:19:48.480Z,16.15
2016-08-30T01:20:47.764Z,16.09
2016-08-30T01:21:47.746Z,16.05
2016-08-30T01:22:47.722Z,16.08
2016-08-30T01:23:47.694Z,16.08
2016-08-30T01:24:47.674Z,16.05
2016-08-30T01:25:47.650Z,16.05
2016-08-30T01:26:47.629Z,16.12
2016-08-30T01:27:47.606Z,16.05
2016-08-30T01:28:47.582Z,16.05
2016-08-30T01:29:47.560Z,16.04
2016-08-30T01:30:47.538Z,16.04
2016-08-30T01:31:47.522Z,16.08
2016-08-30T01:32:47.498Z,16.01
2016-08-30T01:33:47.468Z,16.08
2016-08-30T01:34:47.449Z,16.05
2016-08-30T01:35:47.428Z,16.01
2016-08-30T01:36:47.404Z,15.97
2016-08-30T01:37:47.383Z,16
2016-08-30T01:38:47.357Z,16.02
2016-08-30T01:39:47.339Z,15.92
2016-08-30T01:40:47.314Z,15.97
2016-08-30T01:41:47.293Z,15.91
2016-08-30T01:42:47.271Z,15.91
2016-08-30T01:43:47.246Z,15.92
2016-08-30T01:44:47.227Z,15.84
2016-08-30T01:45:47.209Z,15.91
2016-08-30T01:46:47.182Z,15.84
2016-08-30T01:47:47.159Z,15.9
2016-08-30T01:48:47.139Z,15.83
2016-08-30T01:49:47.114Z,15.86
2016-08-30T01:50:47.098Z,15.91
2016-08-30T01:51:47.073Z,15.8
2016-08-30T01:52:47.048Z,15.8
2016-08-30T01:53:47.019Z,15.88
2016-08-30T01:54:47.004Z,15.82
2016-08-30T01:55:46.982Z,15.86
2016-08-30T01:56:46.955Z,15.86
2016-08-30T01:57:46.930Z,15.82
2016-08-30T01:58:46.907Z,15.8
2016-08-30T01:59:46.886Z,15.82
2016-08-30T02:00:46.863Z,15.75
2016-08-30T02:01:47.535Z,15.86
2016-08-30T02:02:46.816Z,15.76
2016-08-30T02:03:46.796Z,15.82
2016-08-30T02:04:46.773Z,15.84
2016-08-30T02:05:46.748Z,15.8
2016-08-30T02:06:46.728Z,15.76
2016-08-30T02:07:46.704Z,15.75
2016-08-30T02:08:46.682Z,15.79
2016-08-30T02:09:46.661Z,15.77
2016-08-30T02:10:46.639Z,15.79
2016-08-30T02:11:46.616Z,15.82
2016-08-30T02:12:46.592Z,15.76
2016-08-30T02:13:46.568Z,15.79
2016-08-30T02:14:46.547Z,15.83
2016-08-30T02:15:46.527Z,15.86
2016-08-30T02:16:46.514Z,15.76
2016-08-30T02:17:46.477Z,15.84
2016-08-30T02:18:46.456Z,15.75
2016-08-30T02:19:46.435Z,15.77
2016-08-30T02:20:46.409Z,15.76
2016-08-30T02:21:46.393Z,15.73
2016-08-30T02:22:46.368Z,15.67
2016-08-30T02:23:46.342Z,15.72
2016-08-30T02:24:46.321Z,15.75
2016-08-30T02:25:46.295Z,15.77
2016-08-30T02:26:46.274Z,15.77
2016-08-30T02:27:46.250Z,15.73
2016-08-30T02:28:46.228Z,15.75
2016-08-30T02:29:46.209Z,15.65
2016-08-30T02:30:46.181Z,15.68
2016-08-30T02:31:46.173Z,15.62
2016-08-30T02:32:46.138Z,15.7
2016-08-30T02:33:46.116Z,15.75
2016-08-30T02:34:46.097Z,15.68
2016-08-30T02:35:46.069Z,15.65
2016-08-30T02:36:46.048Z,15.75
2016-08-30T02:37:46.031Z,15.7
2016-08-30T02:38:46.002Z,15.65
2016-08-30T02:39:45.979Z,15.62
2016-08-30T02:40:45.956Z,15.62
2016-08-30T02:41:45.936Z,15.64
2016-08-30T02:42:45.916Z,15.61
2016-08-30T02:43:45.894Z,15.68
2016-08-30T02:44:46.564Z,15.7
2016-08-30T02:45:45.841Z,15.67
2016-08-30T02:46:45.823Z,15.67
2016-08-30T02:47:45.801Z,15.57
2016-08-30T02:48:45.782Z,15.65
2016-08-30T02:49:45.752Z,15.58
2016-08-30T02:50:45.727Z,15.55
2016-08-30T02:51:45.707Z,15.61
2016-08-30T02:52:45.690Z,15.55
2016-08-30T02:53:45.664Z,15.59
2016-08-30T02:54:45.638Z,15.55
2016-08-30T02:55:45.613Z,15.58
2016-08-30T02:56:46.288Z,15.61
2016-08-30T02:57:45.570Z,15.61
2016-08-30T02:58:45.547Z,15.62
2016-08-30T02:59:45.526Z,15.57
2016-08-30T03:00:45.498Z,15.59
2016-08-30T03:01:45.478Z,15.61
2016-08-30T03:02:45.467Z,15.59
2016-08-30T03:03:45.431Z,15.59
2016-08-30T03:04:45.409Z,15.58
2016-08-30T03:05:45.392Z,15.46
2016-08-30T03:06:45.363Z,15.43
2016-08-30T03:07:45.346Z,15.46
2016-08-30T03:08:45.316Z,15.54
2016-08-30T03:09:45.294Z,15.47
2016-08-30T03:10:45.280Z,15.4
2016-08-30T03:11:45.249Z,15.51
2016-08-30T03:12:45.227Z,15.47
2016-08-30T03:13:45.201Z,15.51
2016-08-30T03:14:45.181Z,15.44
2016-08-30T03:15:45.158Z,15.42
2016-08-30T03:16:45.136Z,15.4
2016-08-30T03:17:45.226Z,15.37
2016-08-30T03:18:45.088Z,15.39
2016-08-30T03:19:45.068Z,15.33
2016-08-30T03:20:45.046Z,15.39
2016-08-30T03:21:45.034Z,15.35
2016-08-30T03:22:44.999Z,15.35
2016-08-30T03:23:44.974Z,15.44
2016-08-30T03:24:44.954Z,15.36
2016-08-30T03:25:44.930Z,15.36
2016-08-30T03:26:44.903Z,15.33
2016-08-30T03:27:44.883Z,15.29
2016-08-30T03:28:44.866Z,15.36
2016-08-30T03:29:44.850Z,15.33
2016-08-30T03:30:44.815Z,15.33
2016-08-30T03:31:44.790Z,15.36
2016-08-30T03:32:44.775Z,15.33
2016-08-30T03:33:44.745Z,15.31
2016-08-30T03:34:44.719Z,15.35
2016-08-30T03:35:45.352Z,15.29
2016-08-30T03:36:44.675Z,15.29
2016-08-30T03:37:44.650Z,15.28
2016-08-30T03:38:44.638Z,15.28
2016-08-30T03:39:44.607Z,15.25
2016-08-30T03:40:44.583Z,15.22
2016-08-30T03:41:44.561Z,15.22
2016-08-30T03:42:44.538Z,15.19
2016-08-30T03:43:44.515Z,15.18
2016-08-30T03:44:44.490Z,15.25
2016-08-30T03:45:44.464Z,15.19
2016-08-30T03:46:44.445Z,15.25
2016-08-30T03:47:44.420Z,15.15
2016-08-30T03:48:44.395Z,15.22
2016-08-30T03:49:44.376Z,15.21
2016-08-30T03:50:44.354Z,15.19
2016-08-30T03:51:44.328Z,15.17
2016-08-30T03:52:44.305Z,15.21
2016-08-30T03:53:44.286Z,15.15
2016-08-30T03:54:44.261Z,15.19
2016-08-30T03:55:44.245Z,15.18
2016-08-30T03:56:44.211Z,15.19
2016-08-30T03:57:44.190Z,15.18
2016-08-30T03:58:44.165Z,15.17
2016-08-30T03:59:44.148Z,15.07
2016-08-30T04:00:44.121Z,15.15
2016-08-30T04:01:44.095Z,15.14
2016-08-30T04:02:44.072Z,15.11
2016-08-30T04:03:44.068Z,15.1
2016-08-30T04:04:44.028Z,15.17
2016-08-30T04:05:44.010Z,15.18
2016-08-30T04:06:43.982Z,15.17
2016-08-30T04:07:43.956Z,15.11
2016-08-30T04:08:43.934Z,15.14
2016-08-30T04:09:43.927Z,15.1
2016-08-30T04:10:43.888Z,15.17
2016-08-30T04:11:43.863Z,15.17
2016-08-30T04:12:43.839Z,15.07
2016-08-30T04:13:43.821Z,15
2016-08-30T04:14:43.795Z,15.06
2016-08-30T04:15:43.770Z,15.04
2016-08-30T04:16:43.748Z,15.09
2016-08-30T04:17:43.729Z,14.99
2016-08-30T04:18:43.703Z,15.07
2016-08-30T04:19:43.679Z,14.96
2016-08-30T04:20:43.657Z,14.92
2016-08-30T04:21:43.629Z,14.97
2016-08-30T04:22:43.609Z,15
2016-08-30T04:23:43.584Z,15.02
2016-08-30T04:24:43.562Z,14.94
2016-08-30T04:25:43.539Z,14.96
2016-08-30T04:26:43.517Z,14.91
2016-08-30T04:27:43.495Z,14.88
2016-08-30T04:28:43.480Z,14.91
2016-08-30T04:29:43.450Z,14.96
2016-08-30T04:30:43.423Z,14.89
2016-08-30T04:31:43.398Z,14.89
2016-08-30T04:32:43.373Z,14.89
2016-08-30T04:33:43.352Z,14.96
2016-08-30T04:34:43.331Z,14.86
2016-08-30T04:35:43.305Z,14.88
2016-08-30T04:36:43.283Z,14.89
2016-08-30T04:37:43.259Z,14.86
2016-08-30T04:38:43.235Z,14.96
2016-08-30T04:39:43.213Z,14.85
2016-08-30T04:40:43.187Z,14.85
2016-08-30T04:41:43.166Z,14.81
2016-08-30T04:42:43.144Z,14.86
2016-08-30T04:43:43.115Z,14.82
2016-08-30T04:44:43.096Z,14.79
2016-08-30T04:45:43.071Z,14.79
2016-08-30T04:46:43.046Z,14.79
2016-08-30T04:47:43.031Z,14.77
2016-08-30T04:48:43.001Z,14.81
2016-08-30T04:49:42.979Z,14.77
2016-08-30T04:50:42.953Z,14.77
2016-08-30T04:51:42.928Z,14.88
2016-08-30T04:52:42.907Z,14.81
2016-08-30T04:53:42.885Z,14.77
2016-08-30T04:54:42.865Z,14.78
2016-08-30T04:55:42.838Z,14.79
2016-08-30T04:56:42.830Z,14.84
2016-08-30T04:57:42.796Z,14.79
2016-08-30T04:58:42.768Z,14.73
2016-08-30T04:59:42.742Z,14.78
2016-08-30T05:00:42.722Z,14.72
2016-08-30T05:01:42.697Z,14.85
2016-08-30T05:02:42.672Z,14.86
2016-08-30T05:03:42.659Z,14.85
2016-08-30T05:04:42.627Z,14.88
2016-08-30T05:05:42.605Z,14.86
2016-08-30T05:06:42.589Z,14.88
2016-08-30T05:07:42.556Z,14.79
2016-08-30T05:08:42.533Z,14.89
2016-08-30T05:09:42.510Z,14.88
2016-08-30T05:10:42.486Z,14.89
2016-08-30T05:11:42.464Z,14.92
2016-08-30T05:12:42.451Z,14.88
2016-08-30T05:13:42.423Z,14.91
2016-08-30T05:14:42.403Z,14.91
2016-08-30T05:15:42.367Z,14.89
2016-08-30T05:16:42.347Z,14.91
2016-08-30T05:17:42.327Z,14.91
2016-08-30T05:18:42.300Z,14.94
2016-08-30T05:19:42.278Z,14.96
2016-08-30T05:20:42.260Z,14.88
2016-08-30T05:21:42.244Z,14.92
2016-08-30T05:22:42.210Z,14.88
2016-08-30T05:23:42.182Z,14.88
2016-08-30T05:24:42.163Z,14.92
2016-08-30T05:25:42.138Z,14.85
2016-08-30T05:26:42.112Z,14.96
2016-08-30T05:27:42.093Z,14.89
2016-08-30T05:28:42.071Z,14.86
2016-08-30T05:29:42.044Z,14.88
2016-08-30T05:30:42.031Z,14.89
2016-08-30T05:31:42.000Z,14.91
2016-08-30T05:32:41.983Z,14.97
2016-08-30T05:33:41.954Z,14.97
2016-08-30T05:34:41.930Z,14.88
2016-08-30T05:35:41.907Z,14.88
2016-08-30T05:36:41.885Z,14.92
2016-08-30T05:37:41.861Z,14.94
2016-08-30T05:38:41.838Z,14.91
2016-08-30T05:39:42.856Z,14.88
2016-08-30T05:40:44.020Z,14.96
2016-08-30T05:41:42.022Z,14.97
2016-08-30T05:42:41.753Z,14.91
2016-08-30T05:43:41.721Z,15.02
2016-08-30T05:44:41.705Z,15
2016-08-30T05:45:46.597Z,15.09
2016-08-30T05:46:41.801Z,15.09
2016-08-30T05:47:41.640Z,15.14
2016-08-30T05:48:41.614Z,15.03
2016-08-30T05:49:41.585Z,15.15
2016-08-30T05:50:41.569Z,15.1
2016-08-30T05:51:41.549Z,15.14
2016-08-30T05:52:41.546Z,15.15
2016-08-30T05:57:02.725Z,15.25
2016-08-30T05:57:11.976Z,15.19
2016-08-30T05:58:11.953Z,15.19
2016-08-30T05:59:13.163Z,15.25
2016-08-30T06:00:18.591Z,15.19
2016-08-30T06:01:31.200Z,15.22
2016-08-30T06:02:11.901Z,15.28
2016-08-30T06:03:11.852Z,15.29
2016-08-30T06:04:11.831Z,15.28
2016-08-30T06:05:13.390Z,15.39
2016-08-30T06:06:11.784Z,15.43
2016-08-30T06:07:16.696Z,15.39
2016-08-30T06:08:14.132Z,15.44
2016-08-30T06:09:11.890Z,15.47
2016-08-30T06:10:31.737Z,15.4
2016-08-30T06:11:11.671Z,15.43
2016-08-30T06:12:11.645Z,15.49
2016-08-30T06:13:11.632Z,15.49
2016-08-30T06:14:11.597Z,15.49
2016-08-30T06:15:17.764Z,15.55
2016-08-30T06:16:11.578Z,15.67
2016-08-30T06:17:12.258Z,15.7
2016-08-30T06:18:11.503Z,15.8
2016-08-30T06:19:11.485Z,15.77
2016-08-30T06:20:23.752Z,15.73
2016-08-30T06:21:11.489Z,15.88
2016-08-30T06:22:11.471Z,15.75
2016-08-30T06:23:11.408Z,15.77
2016-08-30T06:24:11.371Z,15.83
2016-08-30T06:25:11.979Z,15.86
2016-08-30T06:26:11.322Z,15.83
2016-08-30T06:27:11.309Z,15.91
2016-08-30T06:28:11.282Z,15.88
2016-08-30T06:29:11.256Z,15.98
2016-08-30T06:30:11.234Z,16
2016-08-30T06:31:11.212Z,16
2016-08-30T06:32:11.189Z,16.09
2016-08-30T06:33:11.181Z,16.04
2016-08-30T06:34:11.152Z,16.1
2016-08-30T06:35:11.127Z,16.28
2016-08-30T06:36:11.810Z,16.24
2016-08-30T06:37:11.085Z,16.36
2016-08-30T06:38:11.061Z,16.47
2016-08-30T06:39:11.043Z,16.53
2016-08-30T06:40:11.510Z,16.5
2016-08-30T06:41:10.999Z,16.65
2016-08-30T06:42:10.979Z,16.61
2016-08-30T06:43:10.958Z,16.71
2016-08-30T06:44:10.939Z,16.69
2016-08-30T06:45:10.924Z,16.69
2016-08-30T06:46:10.897Z,16.68
2016-08-30T06:47:10.870Z,16.68
2016-08-30T06:48:10.854Z,16.74
2016-08-30T06:49:10.829Z,16.74
2016-08-30T06:50:10.809Z,16.86
2016-08-30T06:51:10.796Z,16.84
2016-08-30T06:52:10.767Z,16.93
2016-08-30T06:53:10.747Z,16.87
2016-08-30T06:54:10.727Z,16.96
2016-08-30T06:55:11.032Z,16.99
2016-08-30T06:56:10.683Z,17.01
2016-08-30T06:57:10.671Z,16.94
2016-08-30T06:58:10.644Z,17.01
2016-08-30T06:59:10.621Z,16.94
2016-08-30T07:00:10.670Z,16.96
2016-08-30T07:01:10.581Z,16.99
2016-08-30T07:02:10.558Z,16.97
2016-08-30T07:03:10.535Z,16.97
2016-08-30T07:04:10.513Z,16.93
2016-08-30T07:05:10.494Z,17.05
2016-08-30T07:06:10.483Z,17.01
2016-08-30T07:07:10.452Z,16.96
2016-08-30T07:08:10.434Z,17.04
2016-08-30T07:09:10.411Z,17.06
2016-08-30T07:10:11.345Z,17.16
2016-08-30T07:11:10.371Z,17.31
2016-08-30T07:12:10.357Z,17.41
2016-08-30T07:13:10.330Z,17.44
2016-08-30T07:14:10.319Z,17.42
2016-08-30T07:15:10.291Z,17.54
2016-08-30T07:16:10.268Z,17.71
2016-08-30T07:17:10.259Z,17.8
2016-08-30T07:18:10.233Z,17.97
2016-08-30T07:19:10.216Z,17.97
2016-08-30T07:20:19.249Z,18.13
2016-08-30T07:21:11.947Z,18.26
2016-08-30T07:22:10.236Z,18.35
2016-08-30T07:23:10.153Z,18.45
2016-08-30T07:24:10.254Z,18.55
2016-08-30T07:25:13.130Z,18.66
2016-08-30T07:26:11.761Z,18.6
2016-08-30T07:27:10.071Z,18.81
2016-08-30T07:28:10.748Z,18.84
2016-08-30T07:29:10.041Z,18.86
2016-08-30T07:30:10.027Z,18.98
2016-08-30T07:31:10.006Z,19
2016-08-30T07:32:10.006Z,19.09
2016-08-30T07:33:09.971Z,19.22
2016-08-30T07:34:09.955Z,19.22
2016-08-30T07:35:09.938Z,19.29
2016-08-30T07:36:10.043Z,19.16
2016-08-30T07:37:09.906Z,19.27
2016-08-30T07:38:09.884Z,19.44
2016-08-30T07:39:09.876Z,19.31
2016-08-30T07:40:11.006Z,19.48
2016-08-30T07:41:09.842Z,19.56
2016-08-30T07:42:09.821Z,19.63
2016-08-30T07:43:09.809Z,19.66
2016-08-30T07:44:09.794Z,19.79
2016-08-30T07:45:09.770Z,19.77
2016-08-30T07:46:09.752Z,19.81
2016-08-30T07:47:11.376Z,19.76
2016-08-30T07:48:09.719Z,19.77
2016-08-30T07:49:09.701Z,19.85
2016-08-30T07:50:09.713Z,19.79
2016-08-30T07:51:09.671Z,19.77
2016-08-30T07:52:09.667Z,19.86
2016-08-30T07:53:09.647Z,19.88
2016-08-30T07:54:09.675Z,19.86
2016-08-30T07:55:09.624Z,19.86
2016-08-30T07:56:09.589Z,19.86
2016-08-30T07:57:09.579Z,19.85
2016-08-30T07:58:09.557Z,19.76
2016-08-30T07:59:09.536Z,19.76
2016-08-30T08:00:10.052Z,19.73
2016-08-30T08:01:10.199Z,19.74
2016-08-30T08:02:09.478Z,19.76
2016-08-30T08:03:09.456Z,19.89
2016-08-30T08:04:09.443Z,19.82
2016-08-30T08:05:09.807Z,19.85
2016-08-30T08:06:09.403Z,19.86
2016-08-30T08:07:09.388Z,19.85
2016-08-30T08:08:09.366Z,19.88
2016-08-30T08:09:09.352Z,19.91
2016-08-30T08:10:09.333Z,19.96
2016-08-30T08:11:09.320Z,19.91
2016-08-30T08:12:09.302Z,19.92
2016-08-30T08:13:09.277Z,20.03
2016-08-30T08:14:09.258Z,19.95
2016-08-30T08:15:09.241Z,19.94
2016-08-30T08:16:09.222Z,20.02
2016-08-30T08:17:09.208Z,19.94
2016-08-30T08:18:09.183Z,19.99
2016-08-30T08:19:09.173Z,19.92
2016-08-30T08:20:09.154Z,19.96
2016-08-30T08:21:09.126Z,19.95
2016-08-30T08:22:09.108Z,19.94
2016-08-30T08:23:09.090Z,19.95
2016-08-30T08:24:09.092Z,20.04
2016-08-30T08:25:09.753Z,20.09
2016-08-30T08:26:09.035Z,20.02
2016-08-30T08:27:09.016Z,19.99
2016-08-30T08:28:08.999Z,20.04
2016-08-30T08:29:08.979Z,20.16
2016-08-30T08:30:08.962Z,20.03
2016-08-30T08:31:09.635Z,20.07
2016-08-30T08:32:08.924Z,20.06
2016-08-30T08:33:08.904Z,20.09
2016-08-30T08:34:08.892Z,20.13
2016-08-30T08:35:08.866Z,20.13
2016-08-30T08:36:08.849Z,20.19
2016-08-30T08:37:08.830Z,20.06
2016-08-30T08:38:08.810Z,20.19
2016-08-30T08:39:08.798Z,20.18
2016-08-30T08:40:09.637Z,20.22
2016-08-30T08:42:13.143Z,20.14
2016-08-30T08:42:32.601Z,20.21
2016-08-30T08:43:22.583Z,20.29
2016-08-30T08:44:24.225Z,20.31
2016-08-30T08:45:23.858Z,20.31
2016-08-30T08:46:23.393Z,20.31
2016-08-30T08:47:22.565Z,20.26
2016-08-30T08:48:22.516Z,20.37
2016-08-30T08:49:22.478Z,20.34
2016-08-30T08:50:22.719Z,20.36
2016-08-30T08:51:22.438Z,20.31
2016-08-30T08:52:22.416Z,20.4
2016-08-30T08:53:22.402Z,20.41
2016-08-30T08:54:22.404Z,20.29
2016-08-30T08:55:26.618Z,20.43
2016-08-30T08:56:23.047Z,20.41
2016-08-30T08:57:22.323Z,20.51
2016-08-30T08:58:22.347Z,20.48
2016-08-30T08:59:22.292Z,20.5
2016-08-30T09:00:23.916Z,20.47
2016-08-30T09:01:22.249Z,20.5
2016-08-30T09:02:22.227Z,20.51
2016-08-30T09:03:22.233Z,20.55
2016-08-30T09:04:22.204Z,20.52
2016-08-30T09:05:23.175Z,20.59
2016-08-30T09:06:22.168Z,20.62
2016-08-30T09:07:22.136Z,20.59
2016-08-30T09:08:22.129Z,20.72
2016-08-30T09:09:22.102Z,20.74
2016-08-30T09:10:23.919Z,20.72
2016-08-30T09:11:22.069Z,20.74
2016-08-30T09:12:22.045Z,20.63
2016-08-30T09:13:22.031Z,20.65
2016-08-30T09:14:22.008Z,20.63
2016-08-30T09:15:22.611Z,20.67
2016-08-30T09:16:21.973Z,20.7
2016-08-30T09:17:21.951Z,20.7
2016-08-30T09:18:21.934Z,20.72
2016-08-30T09:19:21.917Z,20.7
2016-08-30T09:20:21.896Z,20.84
2016-08-30T09:21:21.881Z,20.82
2016-08-30T09:22:21.861Z,20.82
2016-08-30T09:23:22.841Z,20.75
2016-08-30T09:24:21.826Z,20.75
2016-08-30T09:25:21.808Z,20.78
2016-08-30T09:26:21.788Z,20.7
2016-08-30T09:27:21.774Z,20.75
2016-08-30T09:28:21.751Z,20.7
2016-08-30T09:29:22.426Z,20.67
2016-08-30T09:30:21.790Z,20.81
2016-08-30T09:31:21.700Z,20.85
2016-08-30T09:32:21.680Z,20.93
2016-08-30T09:33:21.665Z,20.96
2016-08-30T09:34:22.343Z,21.02
2016-08-30T09:35:21.633Z,21.02
2016-08-30T09:36:21.667Z,21.06
2016-08-30T09:37:21.591Z,21.12
2016-08-30T09:38:21.574Z,21.21
2016-08-30T09:39:21.557Z,21.2
2016-08-30T09:40:21.538Z,21.3
2016-08-30T09:41:21.518Z,21.21
2016-08-30T09:42:21.500Z,21.25
2016-08-30T09:43:21.769Z,21.35
2016-08-30T09:44:21.471Z,21.36
2016-08-30T09:45:23.075Z,21.45
2016-08-30T09:46:21.430Z,21.45
2016-08-30T09:47:21.413Z,21.54
2016-08-30T09:48:21.395Z,21.61
2016-08-30T09:49:21.376Z,21.72
2016-08-30T09:50:21.362Z,21.66
2016-08-30T09:51:21.342Z,21.7
2016-08-30T09:52:21.325Z,21.61
2016-08-30T09:53:21.319Z,21.61
2016-08-30T09:54:21.289Z,21.61
2016-08-30T09:55:21.270Z,21.64
2016-08-30T09:56:21.256Z,21.76
2016-08-30T09:57:21.243Z,21.73
2016-08-30T09:58:21.221Z,21.8
2016-08-30T09:59:21.201Z,21.92
2016-08-30T10:00:21.184Z,21.93
2016-08-30T10:01:21.168Z,21.92
2016-08-30T10:02:21.149Z,21.92
2016-08-30T10:03:21.132Z,21.85
2016-08-30T10:04:21.118Z,21.83
2016-08-30T10:05:21.099Z,21.91
2016-08-30T10:06:21.079Z,21.8
2016-08-30T10:07:21.061Z,21.92
2016-08-30T10:08:21.043Z,21.8
2016-08-30T10:09:21.032Z,21.88
2016-08-30T10:10:21.011Z,21.8
2016-08-30T10:11:20.992Z,21.88
2016-08-30T10:12:21.668Z,21.88
2016-08-30T10:13:20.958Z,21.89
2016-08-30T10:14:20.941Z,21.88
2016-08-30T10:15:20.927Z,21.96
2016-08-30T10:16:20.908Z,22
2016-08-30T10:17:20.890Z,21.98
2016-08-30T10:18:21.570Z,22.06
2016-08-30T10:19:20.856Z,22.04
2016-08-30T10:20:20.840Z,22.06
2016-08-30T10:21:20.825Z,22.1
2016-08-30T10:22:20.806Z,22.07
2016-08-30T10:23:20.787Z,22.06
2016-08-30T10:24:20.787Z,22.06
2016-08-30T10:25:20.755Z,22.04
2016-08-30T10:26:20.737Z,22.08
2016-08-30T10:27:20.720Z,22
2016-08-30T10:28:20.700Z,22.07
2016-08-30T10:29:20.684Z,22.04
2016-08-30T10:30:20.667Z,22.08
2016-08-30T10:31:20.650Z,22.2
2016-08-30T10:32:20.633Z,22.18
2016-08-30T10:33:20.617Z,22.23
2016-08-30T10:34:20.609Z,22.25
2016-08-30T10:35:20.580Z,22.39
2016-08-30T10:36:20.570Z,22.47
2016-08-30T10:37:20.552Z,22.54
2016-08-30T10:38:20.532Z,22.65
2016-08-30T10:39:20.515Z,22.69
2016-08-30T10:40:20.498Z,22.72
2016-08-30T10:41:20.485Z,22.81
2016-08-30T10:42:20.502Z,22.83
2016-08-30T10:43:20.448Z,22.78
2016-08-30T10:44:20.431Z,22.76
2016-08-30T10:45:20.413Z,22.73
2016-08-30T10:46:20.398Z,22.81
2016-08-30T10:47:20.380Z,22.84
2016-08-30T10:48:20.363Z,22.84
2016-08-30T10:49:20.347Z,22.87
2016-08-30T10:50:20.330Z,22.81
2016-08-30T10:51:20.316Z,22.83
2016-08-30T10:52:20.298Z,22.83
2016-08-30T10:53:20.281Z,22.81
2016-08-30T10:54:20.269Z,22.85
2016-08-30T10:55:20.386Z,22.85
2016-08-30T10:56:20.232Z,22.85
2016-08-30T10:57:20.214Z,22.98
2016-08-30T10:58:20.205Z,23.08
2016-08-30T10:59:20.193Z,23
2016-08-30T11:00:20.170Z,23.13
2016-08-30T11:01:20.149Z,23.15
2016-08-30T11:02:20.132Z,23.2
2016-08-30T11:03:20.130Z,23.12
2016-08-30T11:04:20.106Z,23.21
2016-08-30T11:05:20.111Z,23.32
2016-08-30T11:06:20.418Z,23.36
2016-08-30T11:07:20.049Z,23.34
2016-08-30T11:08:20.036Z,23.27
2016-08-30T11:09:20.021Z,23.32
2016-08-30T11:10:19.999Z,23.21
2016-08-30T11:11:19.984Z,23.17
2016-08-30T11:12:19.969Z,23.13
2016-08-30T11:13:19.951Z,23.2
2016-08-30T11:14:19.940Z,23.13
2016-08-30T11:15:19.920Z,23.23
2016-08-30T11:16:19.903Z,23.21
2016-08-30T11:17:19.889Z,23.23
2016-08-30T11:18:19.870Z,23.21
2016-08-30T11:19:19.848Z,23.13
2016-08-30T11:20:19.833Z,23.13
2016-08-30T11:21:19.817Z,23.18
2016-08-30T11:22:19.802Z,23.27
2016-08-30T11:23:19.785Z,23.23
2016-08-30T11:24:19.787Z,23.41
2016-08-30T11:25:19.758Z,23.43
2016-08-30T11:26:19.737Z,23.43
2016-08-30T11:27:19.722Z,23.47
2016-08-30T11:28:19.707Z,23.59
2016-08-30T11:29:19.698Z,23.58
2016-08-30T11:30:19.675Z,23.54
2016-08-30T11:31:19.657Z,23.51
2016-08-30T11:32:19.641Z,23.47
2016-08-30T11:33:19.630Z,23.39
2016-08-30T11:34:19.609Z,23.28
2016-08-30T11:35:19.595Z,23.21
2016-08-30T11:36:19.576Z,23.25
2016-08-30T11:37:19.563Z,23.34
2016-08-30T11:38:19.551Z,23.31
2016-08-30T11:39:19.532Z,23.31
2016-08-30T11:40:19.515Z,23.39
2016-08-30T11:41:19.504Z,23.41
2016-08-30T11:42:19.489Z,23.44
2016-08-30T11:43:19.469Z,23.54
2016-08-30T11:44:19.452Z,23.58
2016-08-30T11:45:19.431Z,23.66
2016-08-30T11:46:19.418Z,23.61
2016-08-30T11:47:19.402Z,23.59
2016-08-30T11:48:19.382Z,23.58
2016-08-30T11:49:19.370Z,23.55
2016-08-30T11:50:19.957Z,23.58
2016-08-30T11:51:19.334Z,23.54
2016-08-30T11:52:19.329Z,23.66
2016-08-30T11:53:19.308Z,23.68
2016-08-30T11:54:19.292Z,23.78
2016-08-30T11:55:19.272Z,23.8
2016-08-30T11:56:19.975Z,23.78
2016-08-30T11:57:19.241Z,23.88
2016-08-30T11:58:19.224Z,23.83
2016-08-30T11:59:19.234Z,23.8
2016-08-30T12:00:19.198Z,23.87
2016-08-30T12:01:19.176Z,23.92
2016-08-30T12:02:19.161Z,23.93
2016-08-30T12:03:19.145Z,24.11
2016-08-30T12:04:19.135Z,24.2
2016-08-30T12:05:19.394Z,24.18
2016-08-30T12:06:19.097Z,24.17
2016-08-30T12:07:19.080Z,24.36
2016-08-30T12:08:19.066Z,24.32
2016-08-30T12:09:19.050Z,24.33
2016-08-30T12:10:19.036Z,24.43
2016-08-30T12:11:19.020Z,24.51
2016-08-30T12:12:19.003Z,24.53
2016-08-30T12:13:18.993Z,24.65
2016-08-30T12:14:18.972Z,24.66
2016-08-30T12:15:18.959Z,24.65
2016-08-30T12:16:18.941Z,24.65
2016-08-30T12:17:18.927Z,24.76
2016-08-30T12:18:18.910Z,24.68
2016-08-30T12:19:19.588Z,24.81
2016-08-30T12:20:18.879Z,24.84
2016-08-30T12:21:18.866Z,24.74
2016-08-30T12:22:18.857Z,24.77
2016-08-30T12:23:18.851Z,24.66
2016-08-30T12:24:18.819Z,24.54
2016-08-30T12:25:18.803Z,24.54
2016-08-30T12:26:18.789Z,24.53
2016-08-30T12:27:18.772Z,24.51
2016-08-30T12:28:18.761Z,24.54
2016-08-30T12:29:18.743Z,24.55
2016-08-30T12:30:18.728Z,24.54
2016-08-30T12:31:18.711Z,24.55
2016-08-30T12:32:18.700Z,24.57
2016-08-30T12:33:18.680Z,24.51
2016-08-30T12:34:18.665Z,24.66
2016-08-30T12:35:18.656Z,24.73
2016-08-30T12:36:18.635Z,24.85
2016-08-30T12:37:18.620Z,24.84
2016-08-30T12:38:18.608Z,24.88
2016-08-30T12:39:18.588Z,24.85
2016-08-30T12:40:18.574Z,24.81
2016-08-30T12:41:18.562Z,24.88
2016-08-30T12:42:18.544Z,24.89
2016-08-30T12:43:18.527Z,24.96
2016-08-30T12:44:18.517Z,24.99
2016-08-30T12:45:18.772Z,25.11
2016-08-30T12:46:18.482Z,25.1
2016-08-30T12:47:18.474Z,25.14
2016-08-30T12:48:18.462Z,25.07
2016-08-30T12:49:18.441Z,25.14
2016-08-30T12:50:18.424Z,25.16
2016-08-30T12:51:18.411Z,25.26
2016-08-30T12:52:18.392Z,25.26
2016-08-30T12:53:18.381Z,25.22
2016-08-30T12:54:18.367Z,25.36
2016-08-30T12:55:18.399Z,25.4
2016-08-30T12:56:18.341Z,25.33
2016-08-30T12:57:18.320Z,25.38
2016-08-30T12:58:18.303Z,25.4